Time;durP1;ratioP1;P1;durP2;ratioP2;P2;SDS_P1;SDS_P2;PMS_P1;PMS_P2;Temp;Humidity;BMP_temperature;BMP_pressure;BME280_temperature;BME280_humidity;BME280_pressure;Samples;Min_cycle;Max_cycle;Signal;HPM_P1;HPM_P2
2022/06/06 00:02:03;;;;;;;1.70;1.53;;;15.60;98.00;;;;;;5032981;28;20455;-69
2022/06/06 00:04:30;;;;;;;1.83;1.40;;;15.70;98.00;;;;;;5032997;28;20463;-70
2022/06/06 00:06:59;;;;;;;1.20;1.20;;;15.60;98.00;;;;;;5033295;28;20451;-69
2022/06/06 00:09:28;;;;;;;3.20;2.00;;;15.60;98.00;;;;;;5032859;28;20458;-69
2022/06/06 00:12:00;;;;;;;2.00;1.30;;;15.60;98.00;;;;;;5032819;28;20874;-70
2022/06/06 00:14:27;;;;;;;1.47;1.33;;;15.40;98.00;;;;;;5031507;28;20462;-69
2022/06/06 00:16:56;;;;;;;1.50;1.13;;;15.40;98.00;;;;;;5032658;28;20447;-70
2022/06/06 00:19:24;;;;;;;1.80;1.40;;;15.30;98.00;;;;;;5032790;28;20482;-69
2022/06/06 00:21:51;;;;;;;1.50;1.30;;;15.40;98.00;;;;;;5032706;28;20451;-70
2022/06/06 00:24:19;;;;;;;1.83;1.40;;;15.40;98.00;;;;;;5032521;28;20461;-69
2022/06/06 00:26:47;;;;;;;1.20;1.20;;;15.30;98.00;;;;;;5031197;28;20463;-69
2022/06/06 00:29:16;;;;;;;1.60;1.50;;;15.30;98.00;;;;;;5032557;28;20454;-70
2022/06/06 00:37:17;;;;;;;1.20;1.20;;;15.30;98.00;;;;;;5032536;28;20513;-70
2022/06/06 00:39:46;;;;;;;2.80;1.30;;;15.30;98.00;;;;;;5032336;28;20493;-70
2022/06/06 00:42:17;;;;;;;2.90;1.63;;;15.30;98.00;;;;;;5032249;28;20454;-70
2022/06/06 00:44:44;;;;;;;2.30;1.50;;;15.20;98.00;;;;;;5031967;28;20474;-69
2022/06/06 00:47:19;;;;;;;1.50;1.30;;;15.20;98.00;;;;;;5032163;28;20458;-70
2022/06/06 00:49:50;;;;;;;1.50;1.30;;;15.20;98.00;;;;;;5031896;28;20469;-70
2022/06/06 00:52:24;;;;;;;1.50;1.30;;;15.20;98.00;;;;;;5032457;28;20474;-70
2022/06/06 00:54:54;;;;;;;1.60;1.40;;;15.20;98.00;;;;;;5032006;28;20466;-69
2022/06/06 00:57:25;;;;;;;1.97;1.40;;;15.10;98.00;;;;;;5031693;28;20465;-69
2022/06/06 00:59:54;;;;;;;1.70;1.57;;;15.10;98.00;;;;;;5031734;28;20560;-69
2022/06/06 01:02:22;;;;;;;1.90;1.30;;;15.10;98.00;;;;;;5032057;28;20888;-69
2022/06/06 01:04:53;;;;;;;1.40;1.30;;;15.10;98.00;;;;;;5031538;28;20461;-69
2022/06/06 01:07:20;;;;;;;1.90;1.30;;;15.00;98.00;;;;;;5031816;28;20471;-69
2022/06/06 01:09:48;;;;;;;1.63;1.50;;;15.00;98.00;;;;;;5031758;28;20822;-69
2022/06/06 01:12:20;;;;;;;1.50;1.20;;;14.90;98.00;;;;;;5031675;28;20451;-70
2022/06/06 01:14:54;;;;;;;1.93;1.50;;;15.00;98.00;;;;;;5031557;28;20454;-69
2022/06/06 01:17:31;;;;;;;1.90;1.40;;;15.00;98.00;;;;;;5031691;28;20976;-69
2022/06/06 01:20:25;;;;;;;1.40;1.40;;;15.00;98.00;;;;;;5031512;28;20973;-68
2022/06/06 01:23:20;;;;;;;3.47;1.53;;;15.00;98.00;;;;;;5031468;28;20504;-68
2022/06/06 01:26:24;;;;;;;2.03;1.70;;;15.00;98.00;;;;;;5031343;28;20461;-68
2022/06/06 01:29:00;;;;;;;1.37;1.23;;;15.10;98.00;;;;;;4970511;28;20463;-68
2022/06/06 01:31:34;;;;;;;3.07;1.67;;;15.30;98.00;;;;;;5023612;28;20858;-68
2022/06/06 01:34:03;;;;;;;1.50;1.40;;;15.30;98.00;;;;;;5014637;28;20475;-68
2022/06/06 01:36:33;;;;;;;2.90;1.47;;;15.20;98.00;;;;;;5031540;28;20461;-69
2022/06/06 01:39:05;;;;;;;1.73;1.43;;;15.10;98.00;;;;;;5029751;28;20866;-68
2022/06/06 01:41:40;;;;;;;2.20;1.90;;;15.00;98.00;;;;;;5031304;28;20469;-69
2022/06/06 01:44:15;;;;;;;1.53;1.50;;;15.00;98.00;;;;;;5031035;28;20457;-68
2022/06/06 01:46:43;;;;;;;1.50;1.30;;;14.90;98.00;;;;;;5030119;28;21014;-68
2022/06/06 01:49:13;;;;;;;1.60;1.40;;;14.90;98.00;;;;;;5031068;28;20544;-68
2022/06/06 01:51:40;;;;;;;1.30;1.30;;;15.00;98.00;;;;;;5031189;28;20466;-68
2022/06/06 01:54:09;;;;;;;1.53;1.37;;;15.10;98.00;;;;;;5029779;28;20507;-68
2022/06/06 01:56:40;;;;;;;2.17;1.60;;;15.10;98.00;;;;;;5031365;28;20608;-68
2022/06/06 01:59:10;;;;;;;1.67;1.40;;;15.00;98.00;;;;;;5030969;28;20509;-68
2022/06/06 02:01:37;;;;;;;1.40;1.20;;;14.80;98.00;;;;;;5031099;28;20474;-68
2022/06/06 02:04:06;;;;;;;1.77;1.43;;;14.80;98.00;;;;;;5031189;28;20450;-68
2022/06/06 02:06:33;;;;;;;2.17;1.70;;;14.70;98.00;;;;;;5031107;28;20858;-68
2022/06/06 02:09:00;;;;;;;1.43;1.33;;;14.70;98.00;;;;;;5031541;28;20472;-68
2022/06/06 02:11:28;;;;;;;1.30;1.20;;;14.70;98.00;;;;;;5035117;28;20458;-68
2022/06/06 02:13:55;;;;;;;1.40;1.13;;;14.80;98.00;;;;;;5035008;28;20509;-68
2022/06/06 02:16:25;;;;;;;1.30;1.10;;;14.70;98.00;;;;;;5035063;28;20453;-68
2022/06/06 02:18:52;;;;;;;2.07;1.50;;;14.50;98.00;;;;;;5034694;28;20496;-68
2022/06/06 02:21:20;;;;;;;3.13;1.77;;;14.50;98.00;;;;;;5034916;28;20468;-68
2022/06/06 02:23:48;;;;;;;1.40;1.30;;;14.50;98.00;;;;;;5033477;28;20474;-68
2022/06/06 02:26:16;;;;;;;1.30;1.13;;;14.50;98.00;;;;;;5034978;28;20479;-68
2022/06/06 02:28:46;;;;;;;1.33;1.17;;;14.50;98.00;;;;;;5034604;28;20863;-68
2022/06/06 02:31:13;;;;;;;1.60;1.50;;;14.40;98.00;;;;;;5035313;28;20488;-69
2022/06/06 02:33:42;;;;;;;1.60;1.43;;;14.30;98.00;;;;;;5034926;28;20551;-68
2022/06/06 02:36:09;;;;;;;2.73;1.73;;;14.20;98.00;;;;;;5033788;28;20547;-68
2022/06/06 02:38:37;;;;;;;1.50;1.40;;;14.20;98.00;;;;;;5034616;28;20484;-68
2022/06/06 02:41:08;;;;;;;1.37;1.30;;;14.20;98.00;;;;;;5034117;28;20453;-68
2022/06/06 02:43:36;;;;;;;1.37;1.13;;;14.30;98.00;;;;;;5034607;28;20877;-68
2022/06/06 02:46:04;;;;;;;2.10;1.50;;;14.40;98.00;;;;;;5034347;28;20971;-68
2022/06/06 02:48:31;;;;;;;3.33;1.93;;;14.60;98.00;;;;;;5016886;28;20496;-68
2022/06/06 02:51:00;;;;;;;1.50;1.40;;;14.60;98.00;;;;;;5033071;28;20952;-69
2022/06/06 02:53:27;;;;;;;1.87;1.33;;;14.70;98.00;;;;;;5034515;28;20457;-68
2022/06/06 02:55:56;;;;;;;1.30;1.13;;;14.60;98.00;;;;;;5034151;28;20453;-69
2022/06/06 02:58:24;;;;;;;1.30;1.30;;;14.40;98.00;;;;;;5034302;28;20554;-68
2022/06/06 03:01:02;;;;;;;1.33;1.27;;;14.30;98.00;;;;;;5032817;28;20965;-68
2022/06/06 03:03:30;;;;;;;1.30;1.20;;;14.20;98.00;;;;;;5034157;28;20989;-68
2022/06/06 03:06:14;;;;;;;2.50;1.60;;;14.20;98.00;;;;;;5033982;28;20462;-68
2022/06/06 03:08:55;;;;;;;1.60;1.30;;;14.10;98.00;;;;;;5033858;28;20454;-68
2022/06/06 03:11:30;;;;;;;5.13;2.20;;;14.00;98.00;;;;;;5034041;28;20484;-68
2022/06/06 03:14:25;;;;;;;1.80;1.40;;;14.10;98.00;;;;;;5033846;28;20998;-68
2022/06/06 03:23:05;;;;;;;1.50;1.50;;;14.20;98.00;;;;;;5033766;28;20448;-69
2022/06/06 03:25:39;;;;;;;1.40;1.23;;;14.30;98.00;;;;;;5033761;28;20457;-68
2022/06/06 03:28:16;;;;;;;1.47;1.27;;;14.30;98.00;;;;;;5033636;28;20476;-68
2022/06/06 03:30:54;;;;;;;1.30;1.30;;;14.30;98.00;;;;;;5033697;28;20472;-69
2022/06/06 03:33:28;;;;;;;1.53;1.40;;;14.00;98.00;;;;;;5034235;28;20465;-69
2022/06/06 03:36:04;;;;;;;1.77;1.13;;;14.10;98.00;;;;;;5033672;28;20877;-69
2022/06/06 03:38:40;;;;;;;1.70;1.40;;;14.20;98.00;;;;;;5033409;28;20495;-69
2022/06/06 03:41:15;;;;;;;2.00;1.60;;;14.30;98.00;;;;;;5033403;28;20489;-69
2022/06/06 03:43:53;;;;;;;1.50;1.13;;;14.20;98.00;;;;;;5032148;28;20471;-69
2022/06/06 03:46:29;;;;;;;1.47;1.40;;;14.10;98.00;;;;;;5033557;28;20476;-68
2022/06/06 03:49:15;;;;;;;1.20;1.10;;;14.10;98.00;;;;;;5033207;28;20514;-68
2022/06/06 03:51:59;;;;;;;1.60;1.50;;;14.30;98.00;;;;;;5033389;28;20464;-68
2022/06/06 03:54:36;;;;;;;1.47;1.43;;;14.50;98.00;;;;;;5033326;28;20457;-68
2022/06/06 03:57:16;;;;;;;1.73;1.53;;;14.50;98.00;;;;;;5033096;28;20462;-68
2022/06/06 03:59:45;;;;;;;1.60;1.37;;;14.60;98.00;;;;;;5032908;28;20486;-68
2022/06/06 04:02:18;;;;;;;1.50;1.23;;;14.60;98.00;;;;;;5033301;28;20821;-69
2022/06/06 04:04:46;;;;;;;2.03;1.23;;;14.70;98.00;;;;;;5033299;28;20543;-68
2022/06/06 04:07:13;;;;;;;1.47;1.33;;;14.70;98.00;;;;;;5031794;28;20466;-68
2022/06/06 04:09:42;;;;;;;1.20;1.20;;;14.60;98.00;;;;;;5032812;28;20457;-68
2022/06/06 04:12:29;;;;;;;1.53;1.30;;;14.70;98.00;;;;;;5032863;28;20466;-69
2022/06/06 04:15:06;;;;;;;1.53;1.40;;;14.60;98.00;;;;;;5033058;28;20463;-68
2022/06/06 04:17:41;;;;;;;1.50;1.20;;;14.50;98.00;;;;;;5031596;28;20476;-69
2022/06/06 04:20:24;;;;;;;2.13;1.20;;;14.40;98.00;;;;;;5031509;28;20486;-69
2022/06/06 04:23:26;;;;;;;1.20;1.10;;;14.40;98.00;;;;;;5032812;28;21015;-68
2022/06/06 04:26:06;;;;;;;1.30;1.20;;;14.50;98.00;;;;;;5017316;28;20515;-69
2022/06/06 04:28:41;;;;;;;1.20;1.17;;;14.50;98.00;;;;;;5031543;28;20539;-69
2022/06/06 04:31:15;;;;;;;1.43;1.30;;;14.40;98.00;;;;;;5032594;28;20511;-69
2022/06/06 04:33:47;;;;;;;1.30;1.20;;;14.40;98.00;;;;;;5032330;28;20460;-69
2022/06/06 04:36:29;;;;;;;1.30;1.13;;;14.70;98.00;;;;;;5032574;28;20469;-69
2022/06/06 04:39:02;;;;;;;1.47;1.30;;;14.80;98.00;;;;;;5032397;28;20551;-69
2022/06/06 04:41:37;;;;;;;1.50;1.50;;;14.80;98.00;;;;;;5032474;28;20462;-69
2022/06/06 04:44:13;;;;;;;1.20;1.10;;;14.70;98.00;;;;;;5032353;28;20759;-68
2022/06/06 04:46:50;;;;;;;1.20;1.17;;;14.70;98.00;;;;;;5032470;28;20514;-69
2022/06/06 04:49:17;;;;;;;1.80;1.60;;;14.70;98.00;;;;;;5031026;28;20460;-68
2022/06/06 04:51:46;;;;;;;1.67;1.57;;;14.80;98.00;;;;;;5032106;28;20465;-69
2022/06/06 04:54:17;;;;;;;2.13;1.40;;;15.10;98.00;;;;;;5032163;28;20586;-68
2022/06/06 04:56:46;;;;;;;1.27;1.23;;;15.10;98.00;;;;;;5032280;28;20458;-69
2022/06/06 04:59:16;;;;;;;2.07;1.70;;;15.30;98.00;;;;;;5031744;28;20502;-69
2022/06/06 05:01:44;;;;;;;1.40;1.23;;;15.30;98.00;;;;;;5032100;28;20529;-68
2022/06/06 05:04:11;;;;;;;1.67;1.33;;;15.30;98.00;;;;;;5032024;28;20458;-69
2022/06/06 05:07:05;;;;;;;1.80;1.40;;;15.20;98.00;;;;;;5031824;28;20975;-68
2022/06/06 05:10:19;;;;;;;1.70;1.30;;;15.20;98.00;;;;;;5030271;28;20466;-69
2022/06/06 05:13:18;;;;;;;3.03;1.40;;;15.40;98.00;;;;;;5031674;28;20461;-69
2022/06/06 05:16:01;;;;;;;2.23;1.20;;;15.60;98.00;;;;;;5027019;28;20462;-69
2022/06/06 05:18:48;;;;;;;1.63;1.37;;;15.70;98.00;;;;;;5031651;28;20458;-68
2022/06/06 05:21:34;;;;;;;2.30;1.27;;;15.80;98.00;;;;;;5031682;28;20461;-68
2022/06/06 05:24:22;;;;;;;1.40;1.27;;;15.90;98.00;;;;;;5031743;28;20465;-69
2022/06/06 05:30:07;;;;;;;4.13;1.57;;;16.00;98.00;;;;;;5031415;28;20463;-69
2022/06/06 05:33:06;;;;;;;2.70;1.77;;;16.20;98.00;;;;;;5031895;28;20914;-68
2022/06/06 05:36:06;;;;;;;2.20;1.30;;;16.30;98.00;;;;;;5031431;28;20458;-68
2022/06/06 05:39:04;;;;;;;1.63;1.57;;;16.50;98.00;;;;;;5026780;28;20466;-68
2022/06/06 05:41:48;;;;;;;1.40;1.37;;;16.50;98.00;;;;;;5032465;28;20516;-68
2022/06/06 05:44:21;;;;;;;2.20;1.53;;;16.50;98.00;;;;;;5030673;28;20459;-68
2022/06/06 05:46:58;;;;;;;3.00;1.83;;;16.50;98.00;;;;;;5031537;28;21002;-68
2022/06/06 05:49:39;;;;;;;1.60;1.27;;;16.40;98.00;;;;;;5032299;28;20454;-68
2022/06/06 05:52:35;;;;;;;1.70;1.40;;;16.40;98.00;;;;;;5032356;28;20862;-68
2022/06/06 05:55:26;;;;;;;2.33;1.77;;;16.30;98.00;;;;;;5029894;28;20459;-68
2022/06/06 05:58:07;;;;;;;1.30;1.20;;;16.40;98.00;;;;;;5031415;28;20805;-69
2022/06/06 06:00:46;;;;;;;1.80;1.43;;;16.50;98.00;;;;;;5031442;28;20482;-68
2022/06/06 06:03:38;;;;;;;2.67;1.70;;;16.70;98.00;;;;;;5029910;28;20467;-68
2022/06/06 06:06:14;;;;;;;1.77;1.70;;;16.90;98.00;;;;;;5031267;28;20457;-68
2022/06/06 06:09:01;;;;;;;2.13;1.63;;;16.90;98.00;;;;;;5031144;28;20473;-68
2022/06/06 06:11:52;;;;;;;1.20;1.20;;;17.00;98.00;;;;;;5031235;28;20450;-69
2022/06/06 06:14:34;;;;;;;2.10;1.53;;;17.20;98.00;;;;;;5030801;28;20478;-69
2022/06/06 06:17:04;;;;;;;1.60;1.50;;;17.20;98.00;;;;;;5029937;28;20469;-68
2022/06/06 06:19:38;;;;;;;1.50;1.23;;;17.30;98.00;;;;;;5031018;28;20486;-69
2022/06/06 06:22:08;;;;;;;1.40;1.40;;;17.40;98.00;;;;;;5030903;28;20457;-69
2022/06/06 06:24:38;;;;;;;1.60;1.40;;;17.50;98.00;;;;;;5030785;28;20454;-68
2022/06/06 06:27:06;;;;;;;1.47;1.30;;;17.70;98.00;;;;;;5029571;28;20465;-68
2022/06/06 06:29:34;;;;;;;2.83;2.10;;;17.80;98.00;;;;;;5031187;28;20463;-68
2022/06/06 06:32:19;;;;;;;2.30;1.53;;;18.00;98.00;;;;;;5030893;28;20459;-69
2022/06/06 06:35:05;;;;;;;2.10;1.60;;;18.00;98.00;;;;;;5031097;28;20545;-68
2022/06/06 06:37:48;;;;;;;1.43;1.43;;;18.10;98.00;;;;;;5030951;28;20466;-68
2022/06/06 06:40:28;;;;;;;2.07;1.73;;;18.20;98.00;;;;;;5030698;28;20482;-68
2022/06/06 06:43:08;;;;;;;1.83;1.73;;;18.20;98.00;;;;;;5031029;28;20462;-69
2022/06/06 06:45:39;;;;;;;3.53;1.50;;;18.20;98.00;;;;;;5030007;28;20463;-69
2022/06/06 06:48:11;;;;;;;1.60;1.50;;;18.30;98.00;;;;;;5030587;28;20470;-67
2022/06/06 06:50:52;;;;;;;2.00;1.77;;;18.50;98.00;;;;;;5030701;28;20463;-67
2022/06/06 06:53:46;;;;;;;2.37;1.57;;;18.70;98.00;;;;;;5026101;28;20487;-69
2022/06/06 06:56:26;;;;;;;2.00;1.70;;;18.80;98.00;;;;;;5013516;28;20459;-68
2022/06/06 06:58:56;;;;;;;1.60;1.43;;;19.00;98.00;;;;;;5014651;28;20472;-68
2022/06/06 07:01:31;;;;;;;1.60;1.50;;;19.00;98.00;;;;;;5014515;28;20856;-67
2022/06/06 07:10:08;;;;;;;2.30;1.87;;;19.10;98.00;;;;;;5014920;28;20537;-72
2022/06/06 07:12:49;;;;;;;1.63;1.57;;;19.30;98.00;;;;;;5014337;28;20459;-72
2022/06/06 07:15:27;;;;;;;2.40;1.90;;;19.30;98.00;;;;;;5014388;28;20469;-73
2022/06/06 07:17:59;;;;;;;1.80;1.50;;;19.40;98.00;;;;;;5012927;28;20462;-72
2022/06/06 07:20:28;;;;;;;3.73;2.20;;;19.40;98.00;;;;;;5014070;28;20529;-72
2022/06/06 07:23:02;;;;;;;2.20;1.70;;;19.50;98.00;;;;;;5014211;28;20820;-73
2022/06/06 07:25:32;;;;;;;2.73;2.00;;;19.50;98.00;;;;;;5013910;28;20506;-74
2022/06/06 07:28:00;;;;;;;2.00;1.60;;;19.60;98.00;;;;;;5013968;28;20475;-73
2022/06/06 07:30:31;;;;;;;3.33;2.20;;;19.70;98.00;;;;;;5013939;28;20514;-73
2022/06/06 07:33:15;;;;;;;2.60;1.80;;;19.90;98.00;;;;;;5014052;28;20499;-73
2022/06/06 07:35:53;;;;;;;2.83;2.03;;;20.00;98.00;;;;;;5013894;28;20478;-72
2022/06/06 07:38:38;;;;;;;1.87;1.70;;;20.20;98.00;;;;;;5014023;28;20451;-74
2022/06/06 07:41:34;;;;;;;2.00;1.80;;;20.30;98.00;;;;;;5013703;28;20487;-74
2022/06/06 07:44:14;;;;;;;2.20;1.80;;;20.40;98.00;;;;;;5013481;28;20455;-72
2022/06/06 07:46:54;;;;;;;1.90;1.80;;;20.40;98.00;;;;;;5013487;28;20462;-75
2022/06/06 07:49:25;;;;;;;2.33;1.90;;;20.40;98.00;;;;;;5013541;28;20459;-72
2022/06/06 07:51:58;;;;;;;2.60;2.20;;;20.30;98.00;;;;;;5013553;28;20513;-73
2022/06/06 07:54:42;;;;;;;3.30;2.00;;;20.20;98.00;;;;;;5013320;28;20455;-74
2022/06/06 07:57:19;;;;;;;1.87;1.83;;;20.10;98.00;;;;;;5013468;28;20467;-74
2022/06/06 07:59:57;;;;;;;3.13;1.97;;;20.20;98.00;;;;;;5013277;28;20525;-73
2022/06/06 08:02:38;;;;;;;3.07;1.93;;;20.40;98.00;;;;;;5013432;28;20462;-73
2022/06/06 08:05:20;;;;;;;3.00;2.10;;;20.60;98.00;;;;;;5013125;28;20505;-74
2022/06/06 08:07:57;;;;;;;2.37;2.10;;;20.80;98.00;;;;;;5010899;28;20491;-74
2022/06/06 08:10:33;;;;;;;3.30;2.50;;;20.90;98.00;;;;;;5013210;28;20468;-74
2022/06/06 08:13:14;;;;;;;2.27;2.00;;;20.80;98.00;;;;;;5020176;28;20727;-73
2022/06/06 08:15:54;;;;;;;2.67;1.90;;;20.70;98.00;;;;;;5029768;28;20549;-74
2022/06/06 08:18:48;;;;;;;3.60;1.97;;;20.80;98.00;;;;;;5029244;28;20469;-75
2022/06/06 08:21:20;;;;;;;2.23;1.80;;;21.00;98.00;;;;;;5029886;28;20996;-74
2022/06/06 08:23:52;;;;;;;2.37;2.07;;;21.20;98.00;;;;;;5028769;28;20461;-73
2022/06/06 08:26:21;;;;;;;4.03;2.40;;;21.50;98.00;;;;;;5030068;28;20819;-74
2022/06/06 08:28:51;;;;;;;2.90;2.17;;;21.60;98.00;;;;;;5029120;28;20455;-75
2022/06/06 08:31:19;;;;;;;2.70;2.17;;;21.70;98.00;;;;;;5030028;28;20462;-73
2022/06/06 08:33:47;;;;;;;2.67;2.20;;;21.80;98.00;;;;;;5030269;28;21033;-75
2022/06/06 08:36:44;;;;;;;3.60;2.50;;;21.70;98.00;;;;;;5030013;28;20455;-74
2022/06/06 08:39:21;;;;;;;2.53;2.20;;;21.60;98.00;;;;;;5028817;28;20482;-75
2022/06/06 08:42:10;;;;;;;1.73;1.70;;;21.40;98.00;;;;;;5029712;28;20774;-75
2022/06/06 08:44:51;;;;;;;2.70;1.83;;;21.40;98.00;;;;;;5029618;28;20508;-75
2022/06/06 08:47:30;;;;;;;2.10;1.90;;;21.30;98.00;;;;;;5029053;28;20873;-73
2022/06/06 08:53:48;;;;;;;2.67;2.33;;;21.40;98.00;;;;;;5028817;28;20477;-74
2022/06/06 08:56:32;;;;;;;3.80;2.10;;;21.50;98.00;;;;;;5021371;28;20832;-74
2022/06/06 08:59:32;;;;;;;3.70;2.07;;;21.50;98.00;;;;;;5029375;28;20578;-74
2022/06/06 09:02:24;;;;;;;4.23;2.23;;;21.60;98.00;;;;;;5028913;28;20501;-74
2022/06/06 09:05:27;;;;;;;2.03;1.80;;;21.60;98.00;;;;;;5019960;28;20473;-73
2022/06/06 09:08:49;;;;;;;1.70;1.70;;;21.70;98.00;;;;;;5028364;28;20455;-74
2022/06/06 09:11:53;;;;;;;3.10;2.30;;;21.70;98.00;;;;;;5030735;28;20447;-73
2022/06/06 09:14:46;;;;;;;3.77;2.30;;;21.60;98.00;;;;;;5001899;28;20451;-73
2022/06/06 09:17:46;;;;;;;2.10;1.87;;;21.70;98.00;;;;;;5029248;28;20463;-73
2022/06/06 09:20:58;;;;;;;3.40;2.20;;;21.90;98.00;;;;;;5037076;28;20485;-74
2022/06/06 09:24:01;;;;;;;2.77;1.90;;;22.00;98.00;;;;;;5051330;28;20458;-73
2022/06/06 09:26:39;;;;;;;2.60;1.80;;;22.20;98.00;;;;;;5051361;28;20465;-74
2022/06/06 09:29:54;;;;;;;5.50;2.57;;;22.30;98.00;;;;;;5051341;28;20454;-74
2022/06/06 09:32:56;;;;;;;2.30;1.97;;;22.30;98.00;;;;;;5051416;28;20565;-74
2022/06/06 09:35:54;;;;;;;2.73;2.10;;;22.60;98.00;;;;;;5051478;28;20453;-75
2022/06/06 09:38:40;;;;;;;3.43;2.40;;;22.90;98.00;;;;;;5050463;28;20500;-75
2022/06/06 09:41:34;;;;;;;2.57;2.00;;;23.10;98.00;;;;;;5051419;28;20485;-73
2022/06/06 09:44:12;;;;;;;2.90;2.13;;;23.50;98.00;;;;;;5050165;28;20470;-75
2022/06/06 09:47:27;;;;;;;3.20;2.00;;;23.60;98.00;;;;;;5051269;28;20460;-73
2022/06/06 09:50:42;;;;;;;3.50;2.50;;;23.60;98.00;;;;;;4970136;28;20472;-75
2022/06/06 09:53:34;;;;;;;1.93;1.60;;;23.30;98.00;;;;;;5051258;28;20503;-73
2022/06/06 09:59:49;;;;;;;1.93;1.90;;;23.20;98.00;;;;;;5051017;28;20495;-74
2022/06/06 10:02:53;;;;;;;2.90;1.80;;;23.40;98.00;;;;;;5039776;28;20486;-76
2022/06/06 10:05:59;;;;;;;2.63;1.90;;;23.30;98.00;;;;;;5051110;28;20480;-73
2022/06/06 10:09:08;;;;;;;2.40;1.80;;;23.50;98.00;;;;;;5037687;28;20494;-73
2022/06/06 10:12:10;;;;;;;3.37;2.20;;;23.70;98.00;;;;;;5029549;28;20528;-73
2022/06/06 10:14:49;;;;;;;2.80;2.10;;;23.80;97.00;;;;;;5050876;28;20464;-75
2022/06/06 10:17:45;;;;;;;1.77;1.63;;;24.10;94.70;;;;;;5050960;28;20464;-75
2022/06/06 10:20:21;;;;;;;2.00;1.87;;;24.50;96.50;;;;;;5050960;28;20486;-73
2022/06/06 10:23:14;;;;;;;2.83;1.97;;;24.90;95.00;;;;;;5051007;28;20458;-73
2022/06/06 10:26:05;;;;;;;2.83;2.00;;;25.30;96.00;;;;;;5051059;28;20461;-73
2022/06/06 10:29:11;;;;;;;3.30;2.07;;;25.00;92.10;;;;;;5050662;28;20458;-73
2022/06/06 10:32:04;;;;;;;1.63;1.60;;;25.00;91.10;;;;;;5053964;28;20454;-73
2022/06/06 10:35:06;;;;;;;2.40;2.07;;;24.70;92.20;;;;;;5054755;28;20458;-73
2022/06/06 10:37:58;;;;;;;2.13;1.73;;;24.80;95.30;;;;;;5054958;28;20518;-74
2022/06/06 10:40:52;;;;;;;2.37;1.93;;;24.90;94.40;;;;;;5055113;28;20454;-73
2022/06/06 10:44:04;;;;;;;2.00;1.90;;;25.20;94.50;;;;;;5054836;28;20457;-75
2022/06/06 10:46:43;;;;;;;1.80;1.77;;;25.40;93.60;;;;;;5016687;28;20776;-75
2022/06/06 10:49:21;;;;;;;2.17;1.90;;;25.50;89.40;;;;;;5054490;28;20457;-74
2022/06/06 10:52:17;;;;;;;2.70;1.83;;;25.70;89.70;;;;;;5054340;28;20457;-75
2022/06/06 10:55:09;;;;;;;2.73;1.90;;;25.50;89.30;;;;;;5054287;28;20973;-73
2022/06/06 10:58:03;;;;;;;1.70;1.63;;;25.10;90.00;;;;;;5054228;28;20462;-75
2022/06/06 11:00:47;;;;;;;2.80;2.00;;;25.10;91.10;;;;;;5054041;28;20546;-75
2022/06/06 11:03:53;;;;;;;1.97;1.67;;;25.40;90.60;;;;;;5054306;28;20492;-73
2022/06/06 11:07:04;;;;;;;1.93;1.50;;;25.80;89.80;;;;;;5024341;28;20465;-74
2022/06/06 11:09:59;;;;;;;2.23;1.80;;;26.30;91.70;;;;;;5042494;28;20806;-75
2022/06/06 11:13:10;;;;;;;2.13;1.93;;;26.60;86.40;;;;;;5054223;28;20680;-74
2022/06/06 11:15:41;;;;;;;5.00;1.93;;;26.30;84.40;;;;;;5008545;28;20453;-75
2022/06/06 11:18:36;;;;;;;2.20;1.93;;;26.10;87.30;;;;;;5053919;28;20952;-75
2022/06/06 11:21:40;;;;;;;2.17;1.67;;;26.20;87.80;;;;;;5045806;28;20485;-73
2022/06/06 11:24:18;;;;;;;2.07;1.73;;;26.00;84.50;;;;;;5053896;28;20464;-73
2022/06/06 11:27:18;;;;;;;2.60;2.10;;;25.80;85.00;;;;;;5053726;28;20465;-73
2022/06/06 11:30:19;;;;;;;2.20;1.80;;;25.40;89.30;;;;;;5048002;28;20466;-77
2022/06/06 11:33:22;;;;;;;2.27;1.93;;;25.30;88.00;;;;;;5051205;28;20461;-74
2022/06/06 11:36:08;;;;;;;1.80;1.60;;;25.60;87.80;;;;;;5053746;28;20830;-74
2022/06/06 11:39:17;;;;;;;2.60;1.70;;;25.50;88.40;;;;;;5053726;28;20501;-75
2022/06/06 11:42:04;;;;;;;1.73;1.63;;;25.40;87.50;;;;;;5014650;28;20852;-73
2022/06/06 11:45:13;;;;;;;2.17;1.83;;;25.20;88.10;;;;;;5053644;28;20458;-76
2022/06/06 11:47:52;;;;;;;2.70;1.90;;;25.30;88.90;;;;;;5053348;28;20458;-73
2022/06/06 11:51:01;;;;;;;2.40;1.80;;;25.90;88.30;;;;;;5053327;28;20700;-74
2022/06/06 11:53:57;;;;;;;3.13;1.70;;;26.40;87.00;;;;;;5053258;28;20454;-73
2022/06/06 11:56:51;;;;;;;2.83;1.83;;;26.10;85.20;;;;;;5052912;28;20449;-74
2022/06/06 12:00:03;;;;;;;2.10;1.90;;;25.50;86.00;;;;;;5049991;28;20469;-73
2022/06/06 12:02:56;;;;;;;1.60;1.50;;;25.20;88.40;;;;;;5053085;28;20512;-74
2022/06/06 12:06:00;;;;;;;2.73;2.00;;;24.80;89.50;;;;;;5053283;28;20552;-76
2022/06/06 12:08:45;;;;;;;2.70;1.93;;;24.60;90.60;;;;;;5052826;28;20874;-74
2022/06/06 12:11:54;;;;;;;1.87;1.80;;;24.40;89.70;;;;;;5052773;28;20458;-75
2022/06/06 12:14:51;;;;;;;1.73;1.57;;;24.30;90.30;;;;;;5025879;28;20465;-75
2022/06/06 12:17:35;;;;;;;1.73;1.70;;;24.10;89.00;;;;;;5052779;28;20470;-73
2022/06/06 12:20:33;;;;;;;2.20;1.80;;;23.90;90.70;;;;;;5052900;28;20460;-75
2022/06/06 12:23:10;;;;;;;2.53;1.67;;;23.80;90.90;;;;;;5052762;28;20482;-74
2022/06/06 12:26:01;;;;;;;1.67;1.60;;;23.80;90.70;;;;;;5052550;28;20807;-74
2022/06/06 12:29:13;;;;;;;2.10;1.70;;;23.80;91.80;;;;;;5048697;28;20462;-74
2022/06/06 12:31:57;;;;;;;2.77;1.93;;;23.70;92.60;;;;;;5051017;28;20996;-73
2022/06/06 12:34:31;;;;;;;1.80;1.57;;;23.70;94.30;;;;;;5052509;28;20454;-75
2022/06/06 12:37:08;;;;;;;2.07;1.70;;;23.80;92.00;;;;;;5052423;28;20493;-75
2022/06/06 12:39:46;;;;;;;1.80;1.60;;;23.70;93.00;;;;;;5052655;28;20460;-74
2022/06/06 12:42:24;;;;;;;1.67;1.60;;;23.80;94.10;;;;;;5052397;28;20493;-74
2022/06/06 12:45:14;;;;;;;2.47;1.87;;;24.00;95.40;;;;;;5052043;28;20465;-73
2022/06/06 12:48:16;;;;;;;3.20;2.30;;;24.00;92.60;;;;;;5052074;28;20462;-73
2022/06/06 12:50:56;;;;;;;2.97;1.93;;;24.10;93.20;;;;;;5051946;28;20894;-73
2022/06/06 12:53:56;;;;;;;1.80;1.70;;;24.20;93.30;;;;;;5052072;28;20847;-74
2022/06/06 12:56:38;;;;;;;1.80;1.73;;;24.80;91.60;;;;;;5052832;28;20462;-75
2022/06/06 12:59:36;;;;;;;2.77;1.90;;;25.40;92.70;;;;;;5052509;28;20449;-75
2022/06/06 13:02:15;;;;;;;1.97;1.73;;;25.60;87.30;;;;;;5050841;28;20489;-75
2022/06/06 13:04:59;;;;;;;3.97;2.00;;;25.90;88.60;;;;;;5052552;28;20449;-75
2022/06/06 13:08:17;;;;;;;2.53;2.10;;;26.40;86.20;;;;;;5052658;28;20524;-75
2022/06/06 13:10:57;;;;;;;2.17;1.80;;;26.90;85.40;;;;;;4993322;28;20806;-75
2022/06/06 13:13:49;;;;;;;2.70;2.00;;;27.80;82.10;;;;;;5052659;28;20801;-75
2022/06/06 13:16:28;;;;;;;1.97;1.50;;;27.80;81.00;;;;;;5052339;28;20457;-74
2022/06/06 13:19:06;;;;;;;2.07;1.70;;;27.90;79.90;;;;;;5052249;28;20449;-74
2022/06/06 13:21:50;;;;;;;2.83;1.90;;;28.40;81.60;;;;;;5052354;28;20485;-76
2022/06/06 13:24:43;;;;;;;2.00;1.80;;;28.30;80.60;;;;;;5052386;28;20469;-75
2022/06/06 13:27:28;;;;;;;2.30;1.80;;;28.20;80.30;;;;;;5052541;28;20956;-75
2022/06/06 13:29:55;;;;;;;2.07;1.90;;;27.70;80.30;;;;;;5052144;28;20480;-75
2022/06/06 13:32:46;;;;;;;2.33;2.00;;;27.30;80.70;;;;;;5052262;28;20966;-75
2022/06/06 13:35:21;;;;;;;3.10;2.13;;;26.70;81.10;;;;;;5052499;28;20485;-73
2022/06/06 13:38:11;;;;;;;2.57;1.80;;;26.50;81.40;;;;;;5052262;28;20461;-74
2022/06/06 13:40:42;;;;;;;2.30;1.87;;;26.30;82.00;;;;;;5051953;28;20516;-76
2022/06/06 13:43:49;;;;;;;2.03;1.77;;;26.20;80.30;;;;;;5052209;28;20490;-73
2022/06/06 13:46:39;;;;;;;2.37;1.90;;;26.30;83.90;;;;;;5051861;28;20453;-74
2022/06/06 13:49:37;;;;;;;1.90;1.70;;;26.20;83.00;;;;;;5048811;28;20485;-74
2022/06/06 13:52:20;;;;;;;2.47;1.70;;;25.80;82.40;;;;;;5051947;28;20516;-69
2022/06/06 13:54:54;;;;;;;2.33;1.77;;;25.70;84.30;;;;;;5051427;28;20449;-71
2022/06/06 13:57:34;;;;;;;2.63;1.83;;;25.40;85.10;;;;;;5028561;28;20463;-72
2022/06/06 14:00:19;;;;;;;5.23;2.03;;;25.40;88.00;;;;;;5016038;28;20527;-73
2022/06/06 14:03:05;;;;;;;2.00;1.80;;;25.40;86.30;;;;;;5043742;28;20489;-72
2022/06/06 14:05:53;;;;;;;1.73;1.63;;;25.30;86.40;;;;;;5025148;28;20520;-72
2022/06/06 14:08:21;;;;;;;1.70;1.63;;;25.00;87.60;;;;;;5030732;28;20459;-72
2022/06/06 14:11:06;;;;;;;2.43;1.93;;;24.90;88.20;;;;;;5031361;28;20824;-72
2022/06/06 14:13:54;;;;;;;2.47;2.27;;;24.70;89.80;;;;;;5029880;28;20476;-72
2022/06/06 14:16:28;;;;;;;2.30;1.70;;;24.60;90.80;;;;;;5022789;28;20474;-72
2022/06/06 14:19:06;;;;;;;2.80;1.80;;;24.50;89.50;;;;;;5034552;28;20450;-74
2022/06/06 14:21:37;;;;;;;1.70;1.50;;;24.40;89.80;;;;;;5032784;28;20462;-74
2022/06/06 14:24:13;;;;;;;2.23;1.50;;;24.30;89.30;;;;;;5031420;28;20462;-74
2022/06/06 14:26:42;;;;;;;2.63;1.80;;;24.20;88.70;;;;;;5028922;28;20985;-75
2022/06/06 14:29:26;;;;;;;1.80;1.70;;;24.10;89.40;;;;;;5031253;28;20467;-73
2022/06/06 14:32:00;;;;;;;2.60;1.80;;;24.10;88.10;;;;;;5033437;28;20463;-73